Petworth, United Kingdom
Current Conditions -  °F | °C
As of 8:20 AM on Sunday 26 Oct 2014 (Local Time) from EGKK Reporting Station
Broken Clouds Broken Clouds  
Wind Chill: 55°   Ceiling: 2900
Heat Index: 55°   Visibility: 6mi
Dew Point: 48°   Wind: 5mph
Humidity: 77%   Direction: 190°S
Pressure: 30.18"   Gusts: NA
Location:  50.99°N, 0.61°W
Report Text: EGKK 260720Z 19004KT 160V220 9999 BKN029 13/09 Q1022
Loading
Personal Weather Stations






























Interactive Weather Map
Tropical Storm Tracking
New forecast layout! Learn more

10-Day Weather Forecast

Advertisements
Track Severe Weather on mobile